sensor_id;sensor_type;location;lat;lon;timestamp;pressure;altitude;pressure_sealevel;temperature;humidity
20079;BME280;10199;48.850;8.924;2022-10-16T00:01:57;97093.66;;;14.49;89.67
20079;BME280;10199;48.850;8.924;2022-10-16T00:04:27;97075.34;;;14.34;90.46
20079;BME280;10199;48.850;8.924;2022-10-16T00:06:54;97074.75;;;14.32;90.03
20079;BME280;10199;48.850;8.924;2022-10-16T00:09:22;97077.69;;;14.24;90.52
20079;BME280;10199;48.850;8.924;2022-10-16T00:11:50;97053.03;;;14.10;90.04
20079;BME280;10199;48.850;8.924;2022-10-16T00:14:18;97064.81;;;14.21;90.73
20079;BME280;10199;48.850;8.924;2022-10-16T00:16:45;97065.56;;;14.28;89.83
20079;BME280;10199;48.850;8.924;2022-10-16T00:19:13;97064.50;;;14.11;90.36
20079;BME280;10199;48.850;8.924;2022-10-16T00:21:42;97059.81;;;13.81;91.56
20079;BME280;10199;48.850;8.924;2022-10-16T00:24:10;97060.38;;;14.15;91.08
20079;BME280;10199;48.850;8.924;2022-10-16T00:26:39;97063.00;;;13.96;91.13
20079;BME280;10199;48.850;8.924;2022-10-16T00:29:08;97090.44;;;13.90;91.54
20079;BME280;10199;48.850;8.924;2022-10-16T00:31:36;97081.81;;;13.95;91.52
20079;BME280;10199;48.850;8.924;2022-10-16T00:34:04;97075.47;;;13.96;91.43
20079;BME280;10199;48.850;8.924;2022-10-16T00:36:32;97061.84;;;14.11;90.91
20079;BME280;10199;48.850;8.924;2022-10-16T00:39:01;97078.88;;;14.03;91.07
20079;BME280;10199;48.850;8.924;2022-10-16T00:41:29;97073.72;;;14.08;90.92
20079;BME280;10199;48.850;8.924;2022-10-16T00:43:58;97062.72;;;14.05;90.88
20079;BME280;10199;48.850;8.924;2022-10-16T00:46:29;97075.03;;;13.99;91.44
20079;BME280;10199;48.850;8.924;2022-10-16T00:49:02;97059.47;;;14.02;91.25
20079;BME280;10199;48.850;8.924;2022-10-16T00:51:33;97067.75;;;14.13;90.98
20079;BME280;10199;48.850;8.924;2022-10-16T00:54:04;97076.13;;;13.91;91.77
20079;BME280;10199;48.850;8.924;2022-10-16T00:56:35;97043.53;;;13.71;91.61
20079;BME280;10199;48.850;8.924;2022-10-16T00:59:07;97109.16;;;14.02;91.62
20079;BME280;10199;48.850;8.924;2022-10-16T01:01:37;97052.69;;;13.75;91.81
20079;BME280;10199;48.850;8.924;2022-10-16T01:04:05;97080.78;;;13.96;91.71
20079;BME280;10199;48.850;8.924;2022-10-16T01:06:36;97104.84;;;14.08;91.41
20079;BME280;10199;48.850;8.924;2022-10-16T01:09:16;97083.72;;;14.13;91.05
20079;BME280;10199;48.850;8.924;2022-10-16T01:11:53;97076.59;;;14.07;91.21
20079;BME280;10199;48.850;8.924;2022-10-16T01:14:27;97068.69;;;14.00;91.24
20079;BME280;10199;48.850;8.924;2022-10-16T01:17:03;97072.31;;;14.06;91.14
20079;BME280;10199;48.850;8.924;2022-10-16T01:19:44;97112.75;;;14.14;91.18
20079;BME280;10199;48.850;8.924;2022-10-16T01:22:14;97085.28;;;14.20;90.71
20079;BME280;10199;48.850;8.924;2022-10-16T01:24:46;97089.94;;;14.25;90.35
20079;BME280;10199;48.850;8.924;2022-10-16T01:27:20;97088.47;;;14.29;90.37
20079;BME280;10199;48.850;8.924;2022-10-16T01:29:53;97089.88;;;14.31;90.18
20079;BME280;10199;48.850;8.924;2022-10-16T01:32:27;97110.09;;;14.39;90.07
20079;BME280;10199;48.850;8.924;2022-10-16T01:34:59;97088.38;;;14.42;89.08
20079;BME280;10199;48.850;8.924;2022-10-16T01:37:34;97079.63;;;14.35;90.32
20079;BME280;10199;48.850;8.924;2022-10-16T01:40:07;97052.56;;;14.20;90.14
20079;BME280;10199;48.850;8.924;2022-10-16T01:42:40;97081.88;;;14.13;90.82
20079;BME280;10199;48.850;8.924;2022-10-16T01:45:11;97068.00;;;14.29;90.40
20079;BME280;10199;48.850;8.924;2022-10-16T01:47:41;97064.97;;;14.26;90.69
20079;BME280;10199;48.850;8.924;2022-10-16T01:50:10;97070.19;;;14.14;90.82
20079;BME280;10199;48.850;8.924;2022-10-16T01:52:43;97072.13;;;14.25;90.52
20079;BME280;10199;48.850;8.924;2022-10-16T01:55:14;97072.91;;;14.32;90.37
20079;BME280;10199;48.850;8.924;2022-10-16T01:57:47;97081.09;;;14.31;90.27
20079;BME280;10199;48.850;8.924;2022-10-16T02:00:17;97060.69;;;14.25;90.74
20079;BME280;10199;48.850;8.924;2022-10-16T02:02:50;97079.19;;;14.38;90.26
20079;BME280;10199;48.850;8.924;2022-10-16T02:05:22;97073.72;;;14.33;90.29
20079;BME280;10199;48.850;8.924;2022-10-16T02:07:53;97078.16;;;14.39;90.11
20079;BME280;10199;48.850;8.924;2022-10-16T02:10:21;97063.81;;;14.40;89.77
20079;BME280;10199;48.850;8.924;2022-10-16T02:12:56;97072.72;;;14.52;89.84
20079;BME280;10199;48.850;8.924;2022-10-16T02:15:26;97044.47;;;14.08;90.37
20079;BME280;10199;48.850;8.924;2022-10-16T02:17:54;97063.00;;;14.40;90.37
20079;BME280;10199;48.850;8.924;2022-10-16T02:20:25;97071.56;;;14.42;89.95
20079;BME280;10199;48.850;8.924;2022-10-16T02:22:54;97068.28;;;14.46;89.63
20079;BME280;10199;48.850;8.924;2022-10-16T02:25:28;97063.00;;;14.40;89.49
20079;BME280;10199;48.850;8.924;2022-10-16T02:28:01;97073.81;;;14.45;89.43
20079;BME280;10199;48.850;8.924;2022-10-16T02:30:34;97060.84;;;14.30;89.37
20079;BME280;10199;48.850;8.924;2022-10-16T02:33:06;97077.13;;;14.40;89.41
20079;BME280;10199;48.850;8.924;2022-10-16T02:35:35;97070.75;;;14.41;89.20
20079;BME280;10199;48.850;8.924;2022-10-16T02:38:04;97079.97;;;14.45;89.04
20079;BME280;10199;48.850;8.924;2022-10-16T02:40:33;97078.50;;;14.49;88.68
20079;BME280;10199;48.850;8.924;2022-10-16T02:43:04;97067.72;;;14.38;88.70
20079;BME280;10199;48.850;8.924;2022-10-16T02:45:32;97083.22;;;14.47;88.60
20079;BME280;10199;48.850;8.924;2022-10-16T02:48:00;97068.16;;;14.34;88.86
20079;BME280;10199;48.850;8.924;2022-10-16T02:50:28;97088.38;;;14.42;88.68
20079;BME280;10199;48.850;8.924;2022-10-16T02:52:55;97095.16;;;14.38;89.21
20079;BME280;10199;48.850;8.924;2022-10-16T02:55:23;97094.72;;;14.41;89.07
20079;BME280;10199;48.850;8.924;2022-10-16T02:57:51;97085.91;;;14.41;88.88
20079;BME280;10199;48.850;8.924;2022-10-16T03:00:20;97072.06;;;14.32;88.94
20079;BME280;10199;48.850;8.924;2022-10-16T03:02:48;97094.47;;;14.49;88.38
20079;BME280;10199;48.850;8.924;2022-10-16T03:05:16;97097.00;;;14.38;88.80
20079;BME280;10199;48.850;8.924;2022-10-16T03:07:44;97102.31;;;14.38;88.60
20079;BME280;10199;48.850;8.924;2022-10-16T03:10:11;97090.84;;;14.37;88.93
20079;BME280;10199;48.850;8.924;2022-10-16T03:12:39;97098.69;;;14.32;88.93
20079;BME280;10199;48.850;8.924;2022-10-16T03:15:08;97086.97;;;14.15;89.33
20079;BME280;10199;48.850;8.924;2022-10-16T03:17:37;97114.44;;;14.09;89.66
20079;BME280;10199;48.850;8.924;2022-10-16T03:20:05;97101.47;;;14.19;89.55
20079;BME280;10199;48.850;8.924;2022-10-16T03:22:33;97110.25;;;14.19;89.53
20079;BME280;10199;48.850;8.924;2022-10-16T03:25:01;97085.34;;;14.14;89.43
20079;BME280;10199;48.850;8.924;2022-10-16T03:27:29;97075.34;;;14.09;89.21
20079;BME280;10199;48.850;8.924;2022-10-16T03:29:57;97099.63;;;14.19;89.33
20079;BME280;10199;48.850;8.924;2022-10-16T03:32:25;97097.81;;;14.13;89.58
20079;BME280;10199;48.850;8.924;2022-10-16T03:34:56;97095.38;;;14.12;89.73
20079;BME280;10199;48.850;8.924;2022-10-16T03:37:24;97095.00;;;14.08;89.68
20079;BME280;10199;48.850;8.924;2022-10-16T03:39:52;97100.97;;;14.03;90.09
20079;BME280;10199;48.850;8.924;2022-10-16T03:42:20;97097.72;;;14.01;90.15
20079;BME280;10199;48.850;8.924;2022-10-16T03:44:47;97097.94;;;14.00;90.37
20079;BME280;10199;48.850;8.924;2022-10-16T03:47:15;97062.25;;;13.83;90.21
20079;BME280;10199;48.850;8.924;2022-10-16T03:49:47;97121.50;;;13.96;90.37
20079;BME280;10199;48.850;8.924;2022-10-16T03:52:16;97092.84;;;13.98;90.23
20079;BME280;10199;48.850;8.924;2022-10-16T03:54:44;97078.59;;;13.86;90.77
20079;BME280;10199;48.850;8.924;2022-10-16T03:57:12;97099.03;;;13.92;90.41
20079;BME280;10199;48.850;8.924;2022-10-16T03:59:39;97094.09;;;13.96;90.48
20079;BME280;10199;48.850;8.924;2022-10-16T04:02:07;97089.22;;;13.86;90.36
20079;BME280;10199;48.850;8.924;2022-10-16T04:04:35;97097.19;;;13.93;90.42
20079;BME280;10199;48.850;8.924;2022-10-16T04:07:03;97088.03;;;13.82;90.34
20079;BME280;10199;48.850;8.924;2022-10-16T04:09:32;97064.41;;;13.67;90.61
20079;BME280;10199;48.850;8.924;2022-10-16T04:12:00;97092.88;;;13.92;90.31
20079;BME280;10199;48.850;8.924;2022-10-16T04:14:28;97034.25;;;13.55;90.10
20079;BME280;10199;48.850;8.924;2022-10-16T04:16:55;97075.53;;;13.89;90.37
20079;BME280;10199;48.850;8.924;2022-10-16T04:19:23;97084.69;;;13.93;90.39
20079;BME280;10199;48.850;8.924;2022-10-16T04:21:51;97068.44;;;13.77;90.21
20079;BME280;10199;48.850;8.924;2022-10-16T04:24:18;97079.00;;;13.83;89.96
20079;BME280;10199;48.850;8.924;2022-10-16T04:26:48;97099.63;;;13.94;89.94
20079;BME280;10199;48.850;8.924;2022-10-16T04:29:15;97084.72;;;13.87;90.21
20079;BME280;10199;48.850;8.924;2022-10-16T04:31:43;97100.66;;;13.93;90.33
20079;BME280;10199;48.850;8.924;2022-10-16T04:34:11;97105.75;;;13.95;90.24
20079;BME280;10199;48.850;8.924;2022-10-16T04:36:38;97110.47;;;13.93;90.32
20079;BME280;10199;48.850;8.924;2022-10-16T04:39:06;97061.75;;;13.67;90.18
20079;BME280;10199;48.850;8.924;2022-10-16T04:41:34;97096.59;;;13.84;89.83
20079;BME280;10199;48.850;8.924;2022-10-16T04:44:03;97124.41;;;13.88;90.10
20079;BME280;10199;48.850;8.924;2022-10-16T04:46:31;97105.38;;;13.85;89.88
20079;BME280;10199;48.850;8.924;2022-10-16T04:48:58;97133.75;;;13.97;89.95
20079;BME280;10199;48.850;8.924;2022-10-16T04:51:26;97120.88;;;13.94;89.93
20079;BME280;10199;48.850;8.924;2022-10-16T04:53:54;97118.66;;;13.91;89.98
20079;BME280;10199;48.850;8.924;2022-10-16T04:56:22;97133.00;;;13.90;90.12
20079;BME280;10199;48.850;8.924;2022-10-16T04:58:50;97136.69;;;13.89;90.18
20079;BME280;10199;48.850;8.924;2022-10-16T05:01:19;97128.16;;;13.74;90.42
20079;BME280;10199;48.850;8.924;2022-10-16T05:03:47;97139.56;;;13.81;90.49
20079;BME280;10199;48.850;8.924;2022-10-16T05:06:15;97127.31;;;13.80;90.64
20079;BME280;10199;48.850;8.924;2022-10-16T05:08:43;97138.97;;;13.79;90.60
20079;BME280;10199;48.850;8.924;2022-10-16T05:11:10;97125.84;;;13.84;90.15
20079;BME280;10199;48.850;8.924;2022-10-16T05:13:38;97045.00;;;13.35;90.25
20079;BME280;10199;48.850;8.924;2022-10-16T05:16:06;97124.09;;;13.71;90.39
20079;BME280;10199;48.850;8.924;2022-10-16T05:18:35;97125.66;;;13.79;90.24
20079;BME280;10199;48.850;8.924;2022-10-16T05:21:03;97111.38;;;13.74;90.38
20079;BME280;10199;48.850;8.924;2022-10-16T05:23:33;97138.38;;;13.77;90.48
20079;BME280;10199;48.850;8.924;2022-10-16T05:26:01;97116.38;;;13.63;90.55
20079;BME280;10199;48.850;8.924;2022-10-16T05:28:29;97159.41;;;13.79;90.07
20079;BME280;10199;48.850;8.924;2022-10-16T05:30:57;97117.19;;;13.64;90.42
20079;BME280;10199;48.850;8.924;2022-10-16T05:33:25;97151.88;;;13.76;90.55
20079;BME280;10199;48.850;8.924;2022-10-16T05:35:54;97124.91;;;13.72;90.34
20079;BME280;10199;48.850;8.924;2022-10-16T05:38:22;97141.63;;;13.79;90.58
20079;BME280;10199;48.850;8.924;2022-10-16T05:40:51;97138.56;;;13.76;90.24
20079;BME280;10199;48.850;8.924;2022-10-16T05:43:19;97137.16;;;13.73;90.26
20079;BME280;10199;48.850;8.924;2022-10-16T05:45:53;97134.28;;;13.75;90.42
20079;BME280;10199;48.850;8.924;2022-10-16T05:48:21;97153.06;;;13.80;90.27
20079;BME280;10199;48.850;8.924;2022-10-16T05:50:57;97136.78;;;13.69;89.91
20079;BME280;10199;48.850;8.924;2022-10-16T05:53:27;97160.00;;;13.81;90.06
20079;BME280;10199;48.850;8.924;2022-10-16T05:55:55;97159.00;;;13.82;90.15
20079;BME280;10199;48.850;8.924;2022-10-16T05:58:24;97172.28;;;13.82;89.97
20079;BME280;10199;48.850;8.924;2022-10-16T06:00:53;97146.44;;;13.95;89.54
20079;BME280;10199;48.850;8.924;2022-10-16T06:03:22;97154.16;;;14.03;89.18
20079;BME280;10199;48.850;8.924;2022-10-16T06:05:50;97152.25;;;13.79;89.53
20079;BME280;10199;48.850;8.924;2022-10-16T06:08:20;97158.53;;;13.91;89.29
20079;BME280;10199;48.850;8.924;2022-10-16T06:11:00;97157.94;;;13.89;89.50
20079;BME280;10199;48.850;8.924;2022-10-16T06:13:28;97166.53;;;13.91;89.67
20079;BME280;10199;48.850;8.924;2022-10-16T06:15:57;97167.13;;;13.93;89.80
20079;BME280;10199;48.850;8.924;2022-10-16T06:18:25;97138.38;;;13.77;89.48
20079;BME280;10199;48.850;8.924;2022-10-16T06:20:53;97152.38;;;13.97;89.48
20079;BME280;10199;48.850;8.924;2022-10-16T06:23:23;97161.00;;;13.93;89.83
20079;BME280;10199;48.850;8.924;2022-10-16T06:25:51;97162.25;;;13.84;89.67
20079;BME280;10199;48.850;8.924;2022-10-16T06:28:19;97190.03;;;13.94;89.71
20079;BME280;10199;48.850;8.924;2022-10-16T06:30:47;97115.13;;;13.66;89.21
20079;BME280;10199;48.850;8.924;2022-10-16T06:33:14;97173.03;;;13.95;89.38
20079;BME280;10199;48.850;8.924;2022-10-16T06:35:42;97175.91;;;13.94;89.60
20079;BME280;10199;48.850;8.924;2022-10-16T06:38:10;97185.69;;;14.00;89.64
20079;BME280;10199;48.850;8.924;2022-10-16T06:40:39;97193.06;;;13.98;89.48
20079;BME280;10199;48.850;8.924;2022-10-16T06:43:07;97194.28;;;14.02;89.52
20079;BME280;10199;48.850;8.924;2022-10-16T06:45:35;97189.38;;;13.99;89.72
20079;BME280;10199;48.850;8.924;2022-10-16T06:48:03;97206.19;;;13.93;89.77
20079;BME280;10199;48.850;8.924;2022-10-16T06:50:30;97198.94;;;14.07;89.34
20079;BME280;10199;48.850;8.924;2022-10-16T06:52:58;97209.75;;;14.12;89.35
20079;BME280;10199;48.850;8.924;2022-10-16T06:55:26;97197.09;;;14.07;89.21
20079;BME280;10199;48.850;8.924;2022-10-16T06:57:55;97207.28;;;14.17;89.23
20079;BME280;10199;48.850;8.924;2022-10-16T07:00:23;97207.28;;;14.17;89.13
20079;BME280;10199;48.850;8.924;2022-10-16T07:02:51;97215.63;;;14.20;89.30
20079;BME280;10199;48.850;8.924;2022-10-16T07:05:19;97222.19;;;14.18;89.23
20079;BME280;10199;48.850;8.924;2022-10-16T07:07:46;97207.91;;;14.12;88.95
20079;BME280;10199;48.850;8.924;2022-10-16T07:10:14;97231.59;;;14.20;89.06
20079;BME280;10199;48.850;8.924;2022-10-16T07:12:42;97224.47;;;14.14;88.80
20079;BME280;10199;48.850;8.924;2022-10-16T07:15:13;97235.03;;;14.27;88.42
20079;BME280;10199;48.850;8.924;2022-10-16T07:17:41;97235.88;;;14.21;89.02
20079;BME280;10199;48.850;8.924;2022-10-16T07:20:09;97240.41;;;14.21;89.15
20079;BME280;10199;48.850;8.924;2022-10-16T07:22:37;97235.06;;;14.21;88.91
20079;BME280;10199;48.850;8.924;2022-10-16T07:25:06;97253.28;;;14.24;88.56
20079;BME280;10199;48.850;8.924;2022-10-16T07:27:34;97239.63;;;14.14;88.76
20079;BME280;10199;48.850;8.924;2022-10-16T07:30:04;97217.97;;;14.10;88.83
20079;BME280;10199;48.850;8.924;2022-10-16T07:32:34;97251.75;;;14.34;88.59
20079;BME280;10199;48.850;8.924;2022-10-16T07:35:03;97248.06;;;14.42;88.34
20079;BME280;10199;48.850;8.924;2022-10-16T07:37:31;97208.81;;;14.31;87.98
20079;BME280;10199;48.850;8.924;2022-10-16T07:39:58;97256.09;;;14.60;87.78
20079;BME280;10199;48.850;8.924;2022-10-16T07:42:27;97254.25;;;14.61;87.43
20079;BME280;10199;48.850;8.924;2022-10-16T07:44:54;97220.81;;;14.40;87.41
20079;BME280;10199;48.850;8.924;2022-10-16T07:47:22;97261.91;;;14.82;87.38
20079;BME280;10199;48.850;8.924;2022-10-16T07:49:51;97276.34;;;14.93;86.94
20079;BME280;10199;48.850;8.924;2022-10-16T07:52:19;97204.06;;;14.64;86.78
20079;BME280;10199;48.850;8.924;2022-10-16T07:54:47;97270.84;;;15.13;86.23
20079;BME280;10199;48.850;8.924;2022-10-16T07:57:15;97260.06;;;15.26;85.52
20079;BME280;10199;48.850;8.924;2022-10-16T07:59:46;97275.84;;;15.46;85.34
20079;BME280;10199;48.850;8.924;2022-10-16T08:02:13;97297.66;;;15.79;84.92
20079;BME280;10199;48.850;8.924;2022-10-16T08:04:41;97285.53;;;15.65;84.03
20079;BME280;10199;48.850;8.924;2022-10-16T08:07:10;97295.72;;;16.05;83.68
20079;BME280;10199;48.850;8.924;2022-10-16T08:09:38;97300.75;;;16.13;82.11
20079;BME280;10199;48.850;8.924;2022-10-16T08:12:07;97242.94;;;17.48;78.04
20079;BME280;10199;48.850;8.924;2022-10-16T08:14:36;97274.34;;;16.65;79.14
20079;BME280;10199;48.850;8.924;2022-10-16T08:17:04;97289.50;;;16.71;80.03
20079;BME280;10199;48.850;8.924;2022-10-16T08:19:32;97292.81;;;16.36;80.83
20079;BME280;10199;48.850;8.924;2022-10-16T08:22:01;97299.28;;;16.29;80.70
20079;BME280;10199;48.850;8.924;2022-10-16T08:24:30;97300.44;;;16.21;81.48
20079;BME280;10199;48.850;8.924;2022-10-16T08:26:58;97292.41;;;16.21;81.76
20079;BME280;10199;48.850;8.924;2022-10-16T08:29:26;97297.09;;;16.25;80.84
20079;BME280;10199;48.850;8.924;2022-10-16T08:31:54;97299.06;;;16.30;81.08
20079;BME280;10199;48.850;8.924;2022-10-16T08:34:22;97300.81;;;16.54;80.96
20079;BME280;10199;48.850;8.924;2022-10-16T08:36:52;97306.28;;;16.60;81.11
20079;BME280;10199;48.850;8.924;2022-10-16T08:39:20;97287.09;;;16.51;80.60
20079;BME280;10199;48.850;8.924;2022-10-16T08:42:04;97319.28;;;16.56;81.15
20079;BME280;10199;48.850;8.924;2022-10-16T08:47:41;97296.63;;;16.59;80.55
20079;BME280;10199;48.850;8.924;2022-10-16T08:50:13;97306.78;;;16.68;79.80
20079;BME280;10199;48.850;8.924;2022-10-16T08:52:43;97285.31;;;16.75;79.79
20079;BME280;10199;48.850;8.924;2022-10-16T08:55:24;97316.00;;;16.84;80.29
20079;BME280;10199;48.850;8.924;2022-10-16T08:57:56;97286.59;;;16.72;80.56
20079;BME280;10199;48.850;8.924;2022-10-16T09:00:26;97304.84;;;16.75;80.15
20079;BME280;10199;48.850;8.924;2022-10-16T09:03:02;97312.41;;;16.90;79.60
20079;BME280;10199;48.850;8.924;2022-10-16T09:05:48;97281.97;;;16.79;78.88
20079;BME280;10199;48.850;8.924;2022-10-16T09:08:26;97307.22;;;17.18;79.16
20079;BME280;10199;48.850;8.924;2022-10-16T09:10:58;97329.00;;;17.69;77.45
20079;BME280;10199;48.850;8.924;2022-10-16T09:13:31;97330.97;;;17.50;76.52
20079;BME280;10199;48.850;8.924;2022-10-16T09:16:13;97330.38;;;17.71;77.76
20079;BME280;10199;48.850;8.924;2022-10-16T09:18:49;97318.38;;;17.62;77.52
20079;BME280;10199;48.850;8.924;2022-10-16T09:21:21;97327.25;;;17.51;77.01
20079;BME280;10199;48.850;8.924;2022-10-16T09:23:50;97325.03;;;17.36;77.30
20079;BME280;10199;48.850;8.924;2022-10-16T09:26:18;97321.75;;;17.58;76.61
20079;BME280;10199;48.850;8.924;2022-10-16T09:28:51;97335.59;;;17.55;76.79
20079;BME280;10199;48.850;8.924;2022-10-16T09:31:22;97325.59;;;17.50;76.54
20079;BME280;10199;48.850;8.924;2022-10-16T09:33:54;97340.97;;;17.78;76.26
20079;BME280;10199;48.850;8.924;2022-10-16T09:36:23;97331.69;;;18.09;75.58
20079;BME280;10199;48.850;8.924;2022-10-16T09:39:03;97331.53;;;17.87;74.85
20079;BME280;10199;48.850;8.924;2022-10-16T09:41:34;97333.25;;;18.45;73.47
20079;BME280;10199;48.850;8.924;2022-10-16T09:44:18;97350.34;;;19.51;71.39
20079;BME280;10199;48.850;8.924;2022-10-16T09:46:46;97346.84;;;19.00;71.45
20079;BME280;10199;48.850;8.924;2022-10-16T09:49:21;97346.00;;;18.83;71.02
20079;BME280;10199;48.850;8.924;2022-10-16T09:51:50;97358.44;;;18.61;71.04
20079;BME280;10199;48.850;8.924;2022-10-16T09:54:20;97356.38;;;18.63;71.66
20079;BME280;10199;48.850;8.924;2022-10-16T09:56:48;97354.63;;;18.85;72.40
20079;BME280;10199;48.850;8.924;2022-10-16T09:59:20;97365.81;;;18.54;71.21
20079;BME280;10199;48.850;8.924;2022-10-16T10:01:51;97359.53;;;19.05;70.39
20079;BME280;10199;48.850;8.924;2022-10-16T10:04:22;97354.63;;;18.85;70.29
20079;BME280;10199;48.850;8.924;2022-10-16T10:06:52;97375.41;;;19.23;70.56
20079;BME280;10199;48.850;8.924;2022-10-16T10:09:22;97363.94;;;19.11;70.80
20079;BME280;10199;48.850;8.924;2022-10-16T10:11:53;97367.53;;;19.17;70.52
20079;BME280;10199;48.850;8.924;2022-10-16T10:14:25;97369.09;;;18.84;70.00
20079;BME280;10199;48.850;8.924;2022-10-16T10:17:08;97357.84;;;19.16;70.34
20079;BME280;10199;48.850;8.924;2022-10-16T10:19:38;97338.63;;;18.90;70.12
20079;BME280;10199;48.850;8.924;2022-10-16T10:22:16;97375.09;;;18.91;70.21
20079;BME280;10199;48.850;8.924;2022-10-16T10:24:54;97368.59;;;19.32;70.65
20079;BME280;10199;48.850;8.924;2022-10-16T10:27:26;97384.03;;;19.42;69.89
20079;BME280;10199;48.850;8.924;2022-10-16T10:30:01;97377.44;;;19.50;70.23
20079;BME280;10199;48.850;8.924;2022-10-16T10:32:36;97393.66;;;19.93;69.50
20079;BME280;10199;48.850;8.924;2022-10-16T10:35:14;97378.06;;;19.90;69.44
20079;BME280;10199;48.850;8.924;2022-10-16T10:38:06;97406.88;;;20.55;66.98
20079;BME280;10199;48.850;8.924;2022-10-16T10:40:45;97377.06;;;20.57;67.89
20079;BME280;10199;48.850;8.924;2022-10-16T10:43:25;97377.00;;;20.52;67.07
20079;BME280;10199;48.850;8.924;2022-10-16T10:46:03;97362.94;;;20.45;66.88
20079;BME280;10199;48.850;8.924;2022-10-16T10:48:54;97380.84;;;21.10;67.70
20079;BME280;10199;48.850;8.924;2022-10-16T10:51:31;97383.25;;;21.38;67.21
20079;BME280;10199;48.850;8.924;2022-10-16T10:54:13;97357.53;;;21.20;63.07
20079;BME280;10199;48.850;8.924;2022-10-16T10:56:46;97370.28;;;21.30;65.77
20079;BME280;10199;48.850;8.924;2022-10-16T10:59:34;97388.16;;;21.14;63.60
20079;BME280;10199;48.850;8.924;2022-10-16T11:02:10;97366.19;;;21.22;65.73
20079;BME280;10199;48.850;8.924;2022-10-16T11:07:39;97359.41;;;21.20;63.98
20079;BME280;10199;48.850;8.924;2022-10-16T11:10:15;97378.41;;;20.81;64.16
20079;BME280;10199;48.850;8.924;2022-10-16T11:12:47;97397.41;;;20.96;63.58
20079;BME280;10199;48.850;8.924;2022-10-16T11:15:19;97378.88;;;21.00;63.83
20079;BME280;10199;48.850;8.924;2022-10-16T11:17:52;97372.66;;;21.58;65.13
20079;BME280;10199;48.850;8.924;2022-10-16T11:20:24;97350.13;;;21.06;64.11
20079;BME280;10199;48.850;8.924;2022-10-16T11:22:56;97360.22;;;21.52;63.72
20079;BME280;10199;48.850;8.924;2022-10-16T11:25:29;97354.47;;;21.76;62.96
20079;BME280;10199;48.850;8.924;2022-10-16T11:28:08;97261.06;;;21.34;63.70
20079;BME280;10199;48.850;8.924;2022-10-16T11:30:44;97374.16;;;21.81;62.36
20079;BME280;10199;48.850;8.924;2022-10-16T11:33:28;97365.84;;;21.88;62.04
20079;BME280;10199;48.850;8.924;2022-10-16T11:36:06;97385.50;;;22.31;62.49
20079;BME280;10199;48.850;8.924;2022-10-16T11:38:43;97372.88;;;21.89;61.08
20079;BME280;10199;48.850;8.924;2022-10-16T11:41:17;97369.09;;;21.90;62.74
20079;BME280;10199;48.850;8.924;2022-10-16T11:43:52;97371.13;;;21.36;63.73
20079;BME280;10199;48.850;8.924;2022-10-16T11:46:27;97390.59;;;21.80;63.18
20079;BME280;10199;48.850;8.924;2022-10-16T11:49:00;97349.13;;;21.81;64.27
20079;BME280;10199;48.850;8.924;2022-10-16T11:51:33;97364.53;;;21.90;63.87
20079;BME280;10199;48.850;8.924;2022-10-16T11:54:10;97357.94;;;22.13;61.94
20079;BME280;10199;48.850;8.924;2022-10-16T11:56:45;97366.31;;;22.17;61.82
20079;BME280;10199;48.850;8.924;2022-10-16T11:59:22;97370.38;;;21.77;61.73
20079;BME280;10199;48.850;8.924;2022-10-16T12:01:57;97361.47;;;21.72;62.09
20079;BME280;10199;48.850;8.924;2022-10-16T12:04:33;97381.94;;;21.41;62.47
20079;BME280;10199;48.850;8.924;2022-10-16T12:07:08;97361.09;;;21.26;63.34
20079;BME280;10199;48.850;8.924;2022-10-16T12:09:40;97363.69;;;21.16;64.32
20079;BME280;10199;48.850;8.924;2022-10-16T12:12:24;97358.78;;;21.40;63.59
20079;BME280;10199;48.850;8.924;2022-10-16T12:15:00;97368.34;;;21.57;63.77
20079;BME280;10199;48.850;8.924;2022-10-16T12:17:40;97359.00;;;21.33;64.38
20079;BME280;10199;48.850;8.924;2022-10-16T12:20:28;97370.19;;;21.52;63.82
20079;BME280;10199;48.850;8.924;2022-10-16T12:23:00;97362.66;;;21.96;63.74
20079;BME280;10199;48.850;8.924;2022-10-16T12:25:31;97348.13;;;21.97;62.04
20079;BME280;10199;48.850;8.924;2022-10-16T12:28:01;97354.13;;;22.04;61.69
20079;BME280;10199;48.850;8.924;2022-10-16T12:30:31;97348.41;;;22.01;62.38
20079;BME280;10199;48.850;8.924;2022-10-16T12:33:02;97345.59;;;22.28;62.95
20079;BME280;10199;48.850;8.924;2022-10-16T12:35:34;97313.25;;;21.33;64.52
20079;BME280;10199;48.850;8.924;2022-10-16T12:38:17;97369.28;;;21.41;64.62
20079;BME280;10199;48.850;8.924;2022-10-16T12:40:46;97363.66;;;21.43;65.11
20079;BME280;10199;48.850;8.924;2022-10-16T12:43:26;97367.56;;;21.62;64.43
20079;BME280;10199;48.850;8.924;2022-10-16T12:46:03;97374.44;;;21.16;65.55
20079;BME280;10199;48.850;8.924;2022-10-16T12:48:32;97370.69;;;21.17;66.28
20079;BME280;10199;48.850;8.924;2022-10-16T12:51:22;97388.97;;;21.15;66.44
20079;BME280;10199;48.850;8.924;2022-10-16T12:53:58;97365.50;;;21.10;66.18
20079;BME280;10199;48.850;8.924;2022-10-16T12:56:36;97378.53;;;20.91;67.19
20079;BME280;10199;48.850;8.924;2022-10-16T12:59:16;97374.41;;;21.11;66.81
20079;BME280;10199;48.850;8.924;2022-10-16T13:01:57;97393.34;;;20.94;65.92
20079;BME280;10199;48.850;8.924;2022-10-16T13:04:42;97378.41;;;21.35;66.26
20079;BME280;10199;48.850;8.924;2022-10-16T13:07:33;97385.19;;;21.16;65.54
20079;BME280;10199;48.850;8.924;2022-10-16T13:10:13;97379.47;;;21.34;65.78
20079;BME280;10199;48.850;8.924;2022-10-16T13:12:58;97388.97;;;21.15;65.40
20079;BME280;10199;48.850;8.924;2022-10-16T13:15:50;97382.53;;;20.67;67.20
20079;BME280;10199;48.850;8.924;2022-10-16T13:18:24;97393.41;;;20.77;66.83
20079;BME280;10199;48.850;8.924;2022-10-16T13:21:07;97331.50;;;20.72;66.29
20079;BME280;10199;48.850;8.924;2022-10-16T13:23:48;97379.31;;;21.19;66.04
20079;BME280;10199;48.850;8.924;2022-10-16T13:26:28;97383.22;;;20.79;66.55
20079;BME280;10199;48.850;8.924;2022-10-16T13:28:59;97361.47;;;20.81;66.58